createdAt,value
2023-01-18T00:01:12.762Z,-1.83
2023-01-18T00:03:39.422Z,-1.87
2023-01-18T00:06:07.302Z,-1.91
2023-01-18T00:08:34.376Z,-1.89
2023-01-18T00:11:30.656Z,-1.87
2023-01-18T00:13:57.046Z,-1.94
2023-01-18T00:16:23.553Z,-1.92
2023-01-18T00:18:54.227Z,-1.92
2023-01-18T00:21:20.678Z,-1.93
2023-01-18T00:23:47.030Z,-1.95
2023-01-18T00:26:13.737Z,-1.97
2023-01-18T00:28:40.436Z,-1.99
2023-01-18T00:31:15.320Z,-2.04
2023-01-18T00:33:45.616Z,-2.07
2023-01-18T00:36:12.344Z,-2.12
2023-01-18T00:38:38.769Z,-2.16
2023-01-18T00:41:05.119Z,-2.17
2023-01-18T00:43:40.762Z,-2.19
2023-01-18T00:46:08.615Z,-2.18
2023-01-18T00:48:35.384Z,-2.25
2023-01-18T00:51:01.764Z,-2.25
2023-01-18T00:53:28.367Z,-2.27
2023-01-18T00:55:54.739Z,-2.27
2023-01-18T00:58:21.365Z,-2.29
2023-01-18T01:00:51.533Z,-2.25
2023-01-18T01:03:18.679Z,-2.26
2023-01-18T01:06:03.796Z,-2.24
2023-01-18T01:08:30.173Z,-2.26
2023-01-18T01:11:06.969Z,-2.32
2023-01-18T01:13:51.931Z,-2.33
2023-01-18T01:16:36.755Z,-2.32
2023-01-18T01:19:21.903Z,-2.31
2023-01-18T01:22:06.889Z,-2.34
2023-01-18T01:24:51.902Z,-2.37
2023-01-18T01:27:18.292Z,-2.42
2023-01-18T01:29:44.740Z,-2.41
2023-01-18T01:32:11.206Z,-2.43
2023-01-18T01:34:37.863Z,-2.43
2023-01-18T01:37:04.587Z,-2.44
2023-01-18T01:39:31.384Z,-2.46
2023-01-18T01:41:57.998Z,-2.50
2023-01-18T01:44:34.120Z,-2.52
2023-01-18T01:47:03.521Z,-2.58
2023-01-18T01:49:32.711Z,-2.56
2023-01-18T01:52:03.016Z,-2.55
2023-01-18T01:54:32.168Z,-2.56
2023-01-18T01:57:06.000Z,-2.57
2023-01-18T01:59:34.302Z,-2.60
2023-01-18T02:02:00.890Z,-2.63
2023-01-18T02:04:27.333Z,-2.67
2023-01-18T02:06:53.711Z,-2.65
2023-01-18T02:09:23.165Z,-2.58
2023-01-18T02:11:51.372Z,-2.55
2023-01-18T02:14:17.965Z,-2.53
2023-01-18T02:16:59.592Z,-2.52
2023-01-18T02:19:59.540Z,-2.52
2023-01-18T02:22:47.537Z,-2.52
2023-01-18T02:25:35.843Z,-2.51
2023-01-18T02:28:15.412Z,-2.55
2023-01-18T02:30:43.766Z,-2.60
2023-01-18T02:33:10.214Z,-2.63
2023-01-18T02:35:53.022Z,-2.64
2023-01-18T02:38:25.068Z,-2.66
2023-01-18T02:40:58.180Z,-2.68
2023-01-18T02:43:43.122Z,-2.63
2023-01-18T02:46:34.218Z,-2.60
2023-01-18T02:49:05.420Z,-2.63
2023-01-18T02:51:31.828Z,-2.63
2023-01-18T02:53:58.641Z,-2.63
2023-01-18T02:56:30.191Z,-2.58
2023-01-18T02:59:08.804Z,-2.56
2023-01-18T03:02:00.460Z,-2.53
2023-01-18T03:04:29.223Z,-2.55
2023-01-18T03:07:02.181Z,-2.55
2023-01-18T03:09:28.531Z,-2.54
2023-01-18T03:11:59.884Z,-2.55
2023-01-18T03:14:47.610Z,-2.61
2023-01-18T03:17:25.401Z,-2.63
2023-01-18T03:20:05.280Z,-2.63
2023-01-18T03:23:09.166Z,-2.61
2023-01-18T03:25:48.589Z,-2.63
2023-01-18T03:29:04.453Z,-2.65
2023-01-18T03:32:23.018Z,-2.62
2023-01-18T03:34:56.588Z,-2.63
2023-01-18T03:37:33.831Z,-2.65
2023-01-18T03:40:10.028Z,-2.68
2023-01-18T03:42:45.012Z,-2.67
2023-01-18T03:45:20.554Z,-2.67
2023-01-18T03:47:50.320Z,-2.67
2023-01-18T03:50:24.276Z,-2.65
2023-01-18T03:52:50.825Z,-2.66
2023-01-18T03:55:22.939Z,-2.68
2023-01-18T03:58:00.883Z,-2.65
2023-01-18T04:00:27.327Z,-2.68
2023-01-18T04:02:53.834Z,-2.70
2023-01-18T04:05:20.261Z,-2.67
2023-01-18T04:07:46.668Z,-2.67
2023-01-18T04:10:13.207Z,-2.68
2023-01-18T04:12:39.825Z,-2.67
2023-01-18T04:15:06.713Z,-2.67
2023-01-18T04:17:33.100Z,-2.67
2023-01-18T04:19:59.694Z,-2.63
2023-01-18T04:22:26.053Z,-2.68
2023-01-18T04:24:52.865Z,-2.73
2023-01-18T04:27:19.400Z,-2.79
2023-01-18T04:29:45.771Z,-2.79
2023-01-18T04:32:12.128Z,-2.77
2023-01-18T04:34:38.557Z,-2.78
2023-01-18T04:37:04.965Z,-2.79
2023-01-18T04:39:31.307Z,-2.80
2023-01-18T04:41:57.938Z,-2.81
2023-01-18T04:44:24.323Z,-2.79
2023-01-18T04:46:51.047Z,-2.80
2023-01-18T04:49:17.619Z,-2.75
2023-01-18T04:51:45.116Z,-2.78
2023-01-18T04:54:11.639Z,-2.76
2023-01-18T04:56:38.246Z,-2.79
2023-01-18T04:59:04.638Z,-2.78
2023-01-18T05:01:31.106Z,-2.79
2023-01-18T05:03:57.750Z,-2.78
2023-01-18T05:06:24.557Z,-2.81
2023-01-18T05:08:51.321Z,-2.81
2023-01-18T05:11:19.050Z,-2.82
2023-01-18T05:13:45.552Z,-2.84
2023-01-18T05:16:20.379Z,-2.79
2023-01-18T05:18:46.915Z,-2.76
2023-01-18T05:21:13.581Z,-2.78
2023-01-18T05:23:40.384Z,-2.75
2023-01-18T05:26:14.268Z,-2.75
2023-01-18T05:28:41.573Z,-2.78
2023-01-18T05:31:08.164Z,-2.79
2023-01-18T05:33:34.541Z,-2.80
2023-01-18T05:36:01.086Z,-2.79
2023-01-18T05:38:27.444Z,-2.79
2023-01-18T05:40:54.099Z,-2.78
2023-01-18T05:43:21.430Z,-2.79
2023-01-18T05:45:47.920Z,-2.82
2023-01-18T05:48:14.504Z,-2.78
2023-01-18T05:50:45.902Z,-2.77
2023-01-18T05:53:12.466Z,-2.76
2023-01-18T05:55:38.810Z,-2.76
2023-01-18T05:58:05.596Z,-2.83
2023-01-18T06:00:31.981Z,-2.88
2023-01-18T06:02:58.621Z,-2.85
2023-01-18T06:05:25.411Z,-2.82
2023-01-18T06:07:51.979Z,-2.81
2023-01-18T06:10:18.543Z,-2.83
2023-01-18T06:12:45.229Z,-2.82
2023-01-18T06:15:11.914Z,-2.81
2023-01-18T06:17:38.481Z,-2.83
2023-01-18T06:20:06.294Z,-2.87
2023-01-18T06:22:32.661Z,-2.82
2023-01-18T06:24:59.027Z,-2.77
2023-01-18T06:27:25.589Z,-2.76
2023-01-18T06:29:51.971Z,-2.76
2023-01-18T06:32:18.322Z,-2.78
2023-01-18T06:34:44.717Z,-2.80
2023-01-18T06:37:11.063Z,-2.79
2023-01-18T06:39:37.410Z,-2.77
2023-01-18T06:42:03.890Z,-2.78
2023-01-18T06:44:30.302Z,-2.78
2023-01-18T06:46:56.672Z,-2.80
2023-01-18T06:49:23.043Z,-2.82
2023-01-18T06:51:49.378Z,-2.85
2023-01-18T06:54:16.601Z,-2.89
2023-01-18T06:56:42.959Z,-2.88
2023-01-18T06:59:09.377Z,-2.86
2023-01-18T07:01:35.867Z,-2.85
2023-01-18T07:04:02.523Z,-2.87
2023-01-18T07:06:28.897Z,-2.85
2023-01-18T07:08:55.374Z,-2.83
2023-01-18T07:11:21.764Z,-2.84
2023-01-18T07:13:49.393Z,-2.84
2023-01-18T07:16:19.205Z,-2.82
2023-01-18T07:18:47.032Z,-2.83
2023-01-18T07:21:15.223Z,-2.81
2023-01-18T07:23:41.992Z,-2.82
2023-01-18T07:26:15.692Z,-2.81
2023-01-18T07:28:42.633Z,-2.78
2023-01-18T07:31:09.002Z,-2.79
2023-01-18T07:33:36.072Z,-2.79
2023-01-18T07:36:04.858Z,-2.79
2023-01-18T07:38:31.227Z,-2.81
2023-01-18T07:41:02.035Z,-2.87
2023-01-18T07:43:29.706Z,-2.95
2023-01-18T07:45:58.014Z,-2.88
2023-01-18T07:48:27.455Z,-2.83
2023-01-18T07:50:54.547Z,-2.82
2023-01-18T07:53:21.585Z,-2.81
2023-01-18T07:55:47.955Z,-2.75
2023-01-18T07:58:14.360Z,-2.73
2023-01-18T08:00:40.717Z,-2.70
2023-01-18T08:03:07.355Z,-2.65
2023-01-18T08:05:34.477Z,-2.62
2023-01-18T08:08:00.821Z,-2.59
2023-01-18T08:10:27.514Z,-2.55
2023-01-18T08:12:53.995Z,-2.51
2023-01-18T08:15:20.505Z,-2.47
2023-01-18T08:17:46.929Z,-2.46
2023-01-18T08:20:13.484Z,-2.46
2023-01-18T08:22:39.878Z,-2.43
2023-01-18T08:25:06.677Z,-2.39
2023-01-18T08:27:33.038Z,-2.34
2023-01-18T08:29:59.408Z,-2.30
2023-01-18T08:32:26.094Z,-2.21
2023-01-18T08:34:52.433Z,-2.15
2023-01-18T08:37:18.796Z,-2.10
2023-01-18T08:39:45.235Z,-2.05
2023-01-18T08:42:11.869Z,-2.02
2023-01-18T08:44:38.225Z,-1.97
2023-01-18T08:47:04.733Z,-1.91
2023-01-18T08:49:32.679Z,-1.84
2023-01-18T08:51:59.084Z,-1.81
2023-01-18T08:54:25.760Z,-1.80
2023-01-18T08:56:52.114Z,-1.79
2023-01-18T08:59:19.794Z,-1.73
2023-01-18T09:01:46.269Z,-1.66
2023-01-18T09:04:13.658Z,-1.59
2023-01-18T09:06:40.026Z,-1.56
2023-01-18T09:09:06.620Z,-1.52
2023-01-18T09:11:33.029Z,-1.43
2023-01-18T09:14:01.594Z,-1.40
2023-01-18T09:16:28.940Z,-1.37
2023-01-18T09:18:56.234Z,-1.31
2023-01-18T09:21:23.049Z,-1.27
2023-01-18T09:23:49.668Z,-1.24
2023-01-18T09:26:17.083Z,-1.23
2023-01-18T09:28:44.841Z,-1.18
2023-01-18T09:31:12.552Z,-1.14
2023-01-18T09:33:39.397Z,-1.07
2023-01-18T09:36:07.756Z,-1.01
2023-01-18T09:38:34.995Z,-0.94
2023-01-18T09:41:01.894Z,-0.89
2023-01-18T09:43:39.776Z,-0.87
2023-01-18T09:46:14.126Z,-0.83
2023-01-18T09:48:40.960Z,-0.78
2023-01-18T09:51:09.832Z,-0.73
2023-01-18T09:53:51.388Z,-0.71
2023-01-18T09:56:39.199Z,-0.68
2023-01-18T09:59:13.175Z,-0.64
2023-01-18T10:01:39.899Z,-0.60
2023-01-18T10:04:16.508Z,-0.59
2023-01-18T10:06:56.301Z,-0.58
2023-01-18T10:09:27.322Z,-0.56
2023-01-18T10:12:01.725Z,-0.44
2023-01-18T10:14:55.680Z,-0.37
2023-01-18T10:17:25.514Z,-0.28
2023-01-18T10:19:52.023Z,-0.21
2023-01-18T10:22:27.305Z,-0.22
2023-01-18T10:25:19.230Z,-0.26
2023-01-18T10:27:48.872Z,-0.24
2023-01-18T10:30:25.707Z,-0.24
2023-01-18T10:32:53.780Z,-0.20
2023-01-18T10:35:31.201Z,-0.15
2023-01-18T10:38:01.457Z,-0.19
2023-01-18T10:40:27.934Z,-0.11
2023-01-18T10:42:57.654Z,-0.12
2023-01-18T10:45:29.307Z,-0.08
2023-01-18T10:47:56.580Z,-0.02
2023-01-18T10:50:34.488Z,0.06
2023-01-18T10:53:19.325Z,0.08
2023-01-18T10:56:02.395Z,0.11
2023-01-18T10:58:38.812Z,0.18
2023-01-18T11:01:05.977Z,0.22
2023-01-18T11:03:37.787Z,0.30
2023-01-18T11:06:06.293Z,0.33
2023-01-18T11:08:35.058Z,0.45
2023-01-18T11:11:04.606Z,0.53
2023-01-18T11:13:41.063Z,0.63
2023-01-18T11:16:15.493Z,0.69
2023-01-18T11:18:58.076Z,0.81
2023-01-18T11:21:25.260Z,0.89
2023-01-18T11:23:51.894Z,0.97
2023-01-18T11:26:20.265Z,1.02
2023-01-18T11:29:00.263Z,1.05
2023-01-18T11:31:29.044Z,1.14
2023-01-18T11:34:02.285Z,1.23
2023-01-18T11:36:36.624Z,1.31
2023-01-18T11:39:21.343Z,1.34
2023-01-18T11:41:48.787Z,1.45
2023-01-18T11:44:23.590Z,1.52
2023-01-18T11:46:52.102Z,1.62
2023-01-18T11:49:18.438Z,1.60
2023-01-18T11:51:49.935Z,1.68
2023-01-18T11:54:16.518Z,1.68
2023-01-18T11:56:51.574Z,1.76
2023-01-18T11:59:42.134Z,1.86
2023-01-18T12:02:48.050Z,2.06
2023-01-18T12:05:45.828Z,2.12
2023-01-18T12:08:38.348Z,2.21
2023-01-18T12:11:23.622Z,2.21
2023-01-18T12:14:05.119Z,2.21
2023-01-18T12:17:13.211Z,2.19
2023-01-18T12:19:47.967Z,2.23
2023-01-18T12:22:39.091Z,2.18
2023-01-18T12:25:20.955Z,2.14
2023-01-18T12:28:26.073Z,2.16
2023-01-18T12:31:13.898Z,2.19
2023-01-18T12:34:15.727Z,2.22
2023-01-18T12:37:08.749Z,2.22
2023-01-18T12:39:50.609Z,2.25
2023-01-18T12:42:23.534Z,2.26
2023-01-18T12:44:55.762Z,2.30
2023-01-18T12:47:34.797Z,2.29
2023-01-18T12:50:14.435Z,2.32
2023-01-18T12:52:45.464Z,2.33
2023-01-18T12:55:18.191Z,2.39
2023-01-18T12:57:46.535Z,2.37
2023-01-18T13:00:16.410Z,2.40
2023-01-18T13:02:47.932Z,2.40
2023-01-18T13:05:23.669Z,2.39
2023-01-18T13:07:52.335Z,2.49
2023-01-18T13:10:21.359Z,2.57
2023-01-18T13:12:48.650Z,2.67
2023-01-18T13:15:34.246Z,2.65
2023-01-18T13:18:06.398Z,2.72
2023-01-18T13:21:05.689Z,2.86
2023-01-18T13:23:43.955Z,2.83
2023-01-18T13:26:16.962Z,2.81
2023-01-18T13:28:44.026Z,2.79
2023-01-18T13:31:10.537Z,2.77
2023-01-18T13:33:41.205Z,2.73
2023-01-18T13:36:13.559Z,2.71
2023-01-18T13:38:53.398Z,2.69
2023-01-18T13:41:24.737Z,2.72
2023-01-18T13:43:51.459Z,2.68
2023-01-18T13:46:18.263Z,2.65
2023-01-18T13:49:02.181Z,2.67
2023-01-18T13:51:40.734Z,2.65
2023-01-18T13:54:07.087Z,2.64
2023-01-18T13:56:37.587Z,2.65
2023-01-18T13:59:13.003Z,2.64
2023-01-18T14:01:40.744Z,2.63
2023-01-18T14:04:14.959Z,2.61
2023-01-18T14:06:43.226Z,2.57
2023-01-18T14:09:18.507Z,2.59
2023-01-18T14:11:55.236Z,2.60
2023-01-18T14:14:27.628Z,2.51
2023-01-18T14:16:57.369Z,2.49
2023-01-18T14:19:23.875Z,2.39
2023-01-18T14:22:20.511Z,2.33
2023-01-18T14:25:17.122Z,2.31
2023-01-18T14:27:45.787Z,2.29
2023-01-18T14:30:27.324Z,2.27
2023-01-18T14:33:05.016Z,2.31
2023-01-18T14:35:31.545Z,2.23
2023-01-18T14:38:17.944Z,2.24
2023-01-18T14:40:46.811Z,2.28
2023-01-18T14:43:32.175Z,2.13
2023-01-18T14:46:00.237Z,2.09
2023-01-18T14:48:26.773Z,2.03
2023-01-18T14:50:54.091Z,2.09
2023-01-18T14:53:31.460Z,2.08
2023-01-18T14:56:19.251Z,2.05
2023-01-18T14:58:53.061Z,2.05
2023-01-18T15:01:23.548Z,2.02
2023-01-18T15:03:56.111Z,1.97
2023-01-18T15:06:34.811Z,1.95
2023-01-18T15:09:01.917Z,1.91
2023-01-18T15:11:28.299Z,1.92
2023-01-18T15:13:54.899Z,1.92
2023-01-18T15:16:22.513Z,1.89
2023-01-18T15:18:49.795Z,1.83
2023-01-18T15:21:28.475Z,1.83
2023-01-18T15:24:17.022Z,1.79
2023-01-18T15:26:47.355Z,1.80
2023-01-18T15:29:18.559Z,1.77
2023-01-18T15:31:56.212Z,1.69
2023-01-18T15:34:30.052Z,1.58
2023-01-18T15:36:57.514Z,1.45
2023-01-18T15:39:23.978Z,1.34
2023-01-18T15:41:50.340Z,1.26
2023-01-18T15:44:30.337Z,1.30
2023-01-18T15:46:56.990Z,1.33
2023-01-18T15:49:23.438Z,1.24
2023-01-18T15:51:52.931Z,1.16
2023-01-18T15:54:20.919Z,1.05
2023-01-18T15:56:47.454Z,1.01
2023-01-18T15:59:17.500Z,0.98
2023-01-18T16:01:46.367Z,0.95
2023-01-18T16:04:12.789Z,0.94
2023-01-18T16:06:40.341Z,0.94
2023-01-18T16:09:12.098Z,0.87
2023-01-18T16:11:42.998Z,0.80
2023-01-18T16:14:27.793Z,0.73
2023-01-18T16:16:59.677Z,0.66
2023-01-18T16:19:28.841Z,0.68
2023-01-18T16:21:59.585Z,0.69
2023-01-18T16:24:57.279Z,0.66
2023-01-18T16:27:26.285Z,0.74
2023-01-18T16:29:57.918Z,0.68
2023-01-18T16:32:24.500Z,0.59
2023-01-18T16:34:52.505Z,0.60
2023-01-18T16:37:19.113Z,0.59
2023-01-18T16:39:45.743Z,0.50
2023-01-18T16:42:12.451Z,0.43
2023-01-18T16:44:40.528Z,0.38
2023-01-18T16:47:07.008Z,0.35
2023-01-18T16:49:33.382Z,0.35
2023-01-18T16:51:59.991Z,0.37
2023-01-18T16:54:26.598Z,0.37
2023-01-18T16:56:53.013Z,0.32
2023-01-18T16:59:21.672Z,0.28
2023-01-18T17:01:49.015Z,0.28
2023-01-18T17:04:15.741Z,0.34
2023-01-18T17:06:42.415Z,0.31
2023-01-18T17:09:24.286Z,0.30
2023-01-18T17:11:50.896Z,0.28
2023-01-18T17:14:17.536Z,0.30
2023-01-18T17:16:44.716Z,0.36
2023-01-18T17:19:12.691Z,0.38
2023-01-18T17:21:39.172Z,0.42
2023-01-18T17:24:06.261Z,0.40
2023-01-18T17:26:32.700Z,0.38
2023-01-18T17:28:59.067Z,0.43
2023-01-18T17:31:25.662Z,0.45
2023-01-18T17:33:52.003Z,0.51
2023-01-18T17:36:18.398Z,0.49
2023-01-18T17:38:45.389Z,0.49
2023-01-18T17:41:26.587Z,0.50
2023-01-18T17:43:53.835Z,0.54
2023-01-18T17:46:20.286Z,0.51
2023-01-18T17:48:46.719Z,0.51
2023-01-18T17:51:13.430Z,0.52
2023-01-18T17:53:40.353Z,0.55
2023-01-18T17:56:08.364Z,0.54
2023-01-18T17:58:34.727Z,0.53
2023-01-18T18:01:10.280Z,0.53
2023-01-18T18:03:46.916Z,0.52
2023-01-18T18:06:19.000Z,0.47
2023-01-18T18:08:52.561Z,0.41
2023-01-18T18:11:19.000Z,0.45
2023-01-18T18:13:45.434Z,0.42
2023-01-18T18:16:18.201Z,0.33
2023-01-18T18:18:44.804Z,0.25
2023-01-18T18:21:11.302Z,0.14
2023-01-18T18:23:38.240Z,0.08
2023-01-18T18:26:05.132Z,-0.03
2023-01-18T18:28:33.070Z,-0.09
2023-01-18T18:30:59.680Z,-0.04
2023-01-18T18:33:26.520Z,-0.03
2023-01-18T18:35:53.183Z,-0.03
2023-01-18T18:38:22.894Z,0.07
2023-01-18T18:40:53.467Z,0.09
2023-01-18T18:43:20.712Z,0.03
2023-01-18T18:45:47.564Z,0.08
2023-01-18T18:48:14.113Z,0.16
2023-01-18T18:50:40.701Z,0.06
2023-01-18T18:53:07.580Z,0.02
2023-01-18T18:55:33.942Z,-0.03
2023-01-18T18:58:00.385Z,0.03
2023-01-18T19:00:27.316Z,0.09
2023-01-18T19:03:00.944Z,0.18
2023-01-18T19:05:28.230Z,0.17
2023-01-18T19:07:54.847Z,0.18
2023-01-18T19:10:21.470Z,0.17
2023-01-18T19:12:48.011Z,0.20
2023-01-18T19:15:14.401Z,0.17
2023-01-18T19:17:40.854Z,0.10
2023-01-18T19:20:09.946Z,0.09
2023-01-18T19:22:39.679Z,0.07
2023-01-18T19:25:06.685Z,0.01
2023-01-18T19:27:33.031Z,0.02
2023-01-18T19:29:59.400Z,-0.01
2023-01-18T19:32:25.800Z,0.06
2023-01-18T19:34:52.235Z,0.09
2023-01-18T19:37:18.578Z,0.10
2023-01-18T19:39:45.968Z,0.11
2023-01-18T19:42:12.322Z,0.06
2023-01-18T19:44:38.902Z,0.07
2023-01-18T19:47:05.433Z,0.09
2023-01-18T19:49:31.835Z,0.06
2023-01-18T19:51:58.234Z,0.11
2023-01-18T19:54:24.788Z,0.08
2023-01-18T19:56:51.432Z,0.12
2023-01-18T19:59:18.069Z,0.13
2023-01-18T20:01:44.768Z,0.12
2023-01-18T20:04:13.296Z,0.14
2023-01-18T20:06:39.928Z,0.17
2023-01-18T20:09:17.722Z,0.08
2023-01-18T20:11:44.803Z,0.06
2023-01-18T20:14:11.791Z,0.03
2023-01-18T20:16:38.579Z,0.04
2023-01-18T20:19:04.953Z,0.05
2023-01-18T20:21:31.548Z,0.08
2023-01-18T20:23:57.984Z,0.09
2023-01-18T20:26:35.105Z,0.08
2023-01-18T20:29:02.803Z,0.01
2023-01-18T20:31:29.532Z,0.06
2023-01-18T20:33:55.943Z,0.11
2023-01-18T20:36:22.333Z,0.09
2023-01-18T20:38:48.703Z,0.16
2023-01-18T20:41:15.098Z,0.14
2023-01-18T20:43:41.552Z,0.18
2023-01-18T20:46:10.055Z,0.17
2023-01-18T20:48:36.683Z,0.14
2023-01-18T20:51:07.702Z,0.22
2023-01-18T20:53:34.168Z,0.20
2023-01-18T20:56:23.444Z,0.24
2023-01-18T20:58:54.543Z,0.19
2023-01-18T21:01:21.303Z,0.20
2023-01-18T21:03:52.755Z,0.23
2023-01-18T21:06:19.123Z,0.26
2023-01-18T21:08:45.686Z,0.26
2023-01-18T21:11:16.731Z,0.24
2023-01-18T21:13:43.649Z,0.23
2023-01-18T21:16:10.104Z,0.18
2023-01-18T21:18:37.768Z,0.15
2023-01-18T21:21:04.682Z,0.19
2023-01-18T21:23:31.183Z,0.18
2023-01-18T21:26:01.489Z,0.16
2023-01-18T21:28:27.865Z,0.13
2023-01-18T21:30:55.592Z,0.12
2023-01-18T21:33:22.777Z,0.07
2023-01-18T21:35:49.208Z,0.08
2023-01-18T21:38:15.775Z,0.09
2023-01-18T21:40:42.221Z,0.16
2023-01-18T21:43:33.663Z,0.13
2023-01-18T21:46:00.297Z,0.08
2023-01-18T21:48:28.273Z,0.07
2023-01-18T21:51:13.935Z,0.06
2023-01-18T21:54:01.800Z,0.04
2023-01-18T21:56:28.174Z,0.04
2023-01-18T21:58:54.650Z,0.01
2023-01-18T22:01:34.626Z,0.03
2023-01-18T22:04:21.108Z,0.09
2023-01-18T22:06:47.685Z,0.12
2023-01-18T22:09:14.105Z,0.11
2023-01-18T22:11:40.599Z,0.11
2023-01-18T22:14:09.206Z,0.08
2023-01-18T22:16:35.685Z,0.07
2023-01-18T22:19:02.638Z,0.08
2023-01-18T22:21:29.114Z,0.04
2023-01-18T22:23:55.480Z,0.05
2023-01-18T22:26:22.986Z,-0.05
2023-01-18T22:28:49.429Z,-0.17
2023-01-18T22:31:16.220Z,-0.20
2023-01-18T22:33:43.899Z,-0.19
2023-01-18T22:36:10.336Z,-0.18
2023-01-18T22:38:37.813Z,-0.14
2023-01-18T22:41:11.815Z,-0.18
2023-01-18T22:43:39.051Z,-0.14
2023-01-18T22:46:06.229Z,-0.10
2023-01-18T22:48:36.490Z,-0.04
2023-01-18T22:51:03.683Z,-0.05
2023-01-18T22:53:31.098Z,-0.01
2023-01-18T22:56:04.511Z,-0.01
2023-01-18T22:58:31.203Z,0.02
2023-01-18T23:00:57.640Z,0.02
2023-01-18T23:03:24.303Z,0.09
2023-01-18T23:05:57.623Z,0.09
2023-01-18T23:08:25.009Z,0.08
2023-01-18T23:10:57.460Z,0.01
2023-01-18T23:13:23.910Z,0.04
2023-01-18T23:16:08.714Z,0.08
2023-01-18T23:18:35.097Z,-0.02
2023-01-18T23:21:01.466Z,-0.05
2023-01-18T23:23:27.812Z,-0.05
2023-01-18T23:25:55.489Z,-0.02
2023-01-18T23:28:27.488Z,0.03
2023-01-18T23:30:54.757Z,0.00
2023-01-18T23:33:22.077Z,0.01
2023-01-18T23:35:48.900Z,-0.03
2023-01-18T23:38:15.301Z,-0.01
2023-01-18T23:41:00.270Z,0.01
2023-01-18T23:43:44.995Z,0.03
2023-01-18T23:46:30.035Z,0.09
2023-01-18T23:49:14.714Z,0.11
2023-01-18T23:51:59.425Z,0.14
2023-01-18T23:54:25.797Z,0.14
2023-01-18T23:56:52.242Z,0.10
2023-01-18T23:59:18.723Z,0.17
